createdAt,value
2023-04-13T00:00:58.946Z,98583.52
2023-04-13T00:02:00.906Z,98595.45
2023-04-13T00:03:04.675Z,98589.86
2023-04-13T00:04:10.700Z,98591.90
2023-04-13T00:05:14.485Z,98593.94
2023-04-13T00:06:16.969Z,98594.69
2023-04-13T00:07:18.943Z,98598.23
2023-04-13T00:08:24.087Z,98589.86
2023-04-13T00:09:26.129Z,98585.56
2023-04-13T00:10:31.185Z,98592.66
2023-04-13T00:11:35.105Z,98592.66
2023-04-13T00:12:37.619Z,98592.66
2023-04-13T00:13:39.570Z,98588.55
2023-04-13T00:14:44.948Z,98585.01
2023-04-13T00:15:46.954Z,98596.17
2023-04-13T00:16:51.322Z,98600.27
2023-04-13T00:17:57.422Z,98602.30
2023-04-13T00:19:03.149Z,98602.52
2023-04-13T00:20:16.088Z,98594.89
2023-04-13T00:21:19.179Z,98591.34
2023-04-13T00:22:29.052Z,98597.69
2023-04-13T00:24:43.485Z,98598.09
2023-04-13T00:25:46.092Z,98612.19
2023-04-13T00:26:48.445Z,98602.52
2023-04-13T00:27:50.571Z,98592.11
2023-04-13T00:28:52.554Z,98594.89
2023-04-13T00:29:57.337Z,98592.11
2023-04-13T00:31:00.010Z,98590.07
2023-04-13T00:32:02.370Z,98591.58
2023-04-13T00:33:07.353Z,98585.24
2023-04-13T00:34:10.077Z,98590.59
2023-04-13T00:35:19.329Z,98590.07
2023-04-13T00:36:22.016Z,98585.77
2023-04-13T00:37:24.199Z,98587.28
2023-04-13T00:38:28.077Z,98592.86
2023-04-13T00:39:30.037Z,98592.86
2023-04-13T00:40:32.360Z,98586.52
2023-04-13T00:41:37.307Z,98590.83
2023-04-13T00:42:39.935Z,98582.98
2023-04-13T00:43:42.448Z,98589.31
2023-04-13T00:44:47.540Z,98587.28
2023-04-13T00:45:50.356Z,98586.00
2023-04-13T00:46:54.266Z,98576.88
2023-04-13T00:48:00.315Z,98581.17
2023-04-13T00:49:02.920Z,98574.08
2023-04-13T00:50:08.091Z,98567.22
2023-04-13T00:51:10.272Z,98565.19
2023-04-13T00:52:12.352Z,98565.94
2023-04-13T00:53:16.138Z,98557.57
2023-04-13T00:54:19.799Z,98563.15
2023-04-13T00:55:23.710Z,98578.39
2023-04-13T00:56:27.504Z,98579.14
2023-04-13T00:57:31.954Z,98580.42
2023-04-13T00:58:40.020Z,98574.84
2023-04-13T00:59:43.096Z,98574.08
2023-04-13T01:00:46.347Z,98574.08
2023-04-13T01:01:48.393Z,98570.53
2023-04-13T01:02:54.243Z,98571.29
2023-04-13T01:03:57.631Z,98573.33
2023-04-13T01:05:07.713Z,98578.91
2023-04-13T01:06:25.718Z,98580.94
2023-04-13T01:08:53.969Z,98569.43
2023-04-13T01:10:23.194Z,98569.57
2023-04-13T01:11:29.423Z,98569.57
2023-04-13T01:12:59.306Z,98573.64
2023-04-13T01:15:45.875Z,98575.54
2023-04-13T01:17:00.529Z,98567.30
2023-04-13T01:18:04.231Z,98566.55
2023-04-13T01:19:10.546Z,98563.00
2023-04-13T01:21:19.587Z,98558.70
2023-04-13T01:25:12.334Z,98563.52
2023-04-13T01:26:14.830Z,98560.73
2023-04-13T01:27:16.888Z,98556.66
2023-04-13T01:28:19.938Z,98553.12
2023-04-13T01:29:23.087Z,98549.57
2023-04-13T01:30:25.475Z,98557.19
2023-04-13T01:31:29.403Z,98550.84
2023-04-13T01:32:32.139Z,98553.64
2023-04-13T01:33:34.171Z,98554.92
2023-04-13T01:34:38.649Z,98557.70
2023-04-13T01:35:43.832Z,98554.92
2023-04-13T01:36:47.907Z,98554.92
2023-04-13T01:37:53.045Z,98554.92
2023-04-13T01:38:56.925Z,98558.47
2023-04-13T01:39:59.731Z,98555.67
2023-04-13T01:41:04.724Z,98558.47
2023-04-13T01:42:08.614Z,98566.84
2023-04-13T01:43:13.188Z,98564.05
2023-04-13T01:44:27.818Z,98572.42
2023-04-13T01:45:51.084Z,98569.63
2023-04-13T01:46:53.325Z,98571.66
2023-04-13T01:48:28.574Z,98571.66
2023-04-13T01:49:35.402Z,98568.87
2023-04-13T01:51:56.439Z,98558.84
2023-04-13T01:53:06.858Z,98559.74
2023-04-13T01:54:14.866Z,98557.47
2023-04-13T01:55:19.083Z,98558.23
2023-04-13T01:56:23.443Z,98543.52
2023-04-13T01:57:27.553Z,98548.58
2023-04-13T01:58:30.115Z,98548.58
2023-04-13T01:59:34.490Z,98554.92
2023-04-13T02:00:36.961Z,98556.95
2023-04-13T02:01:41.199Z,98565.33
2023-04-13T02:02:43.740Z,98570.91
2023-04-13T02:03:45.975Z,98587.64
2023-04-13T02:04:47.995Z,98580.79
2023-04-13T02:05:50.370Z,98578.00
2023-04-13T02:06:53.557Z,98580.03
2023-04-13T02:07:57.978Z,98578.00
2023-04-13T02:09:00.030Z,98578.00
2023-04-13T02:10:03.415Z,98583.58
2023-04-13T02:11:06.404Z,98587.88
2023-04-13T02:12:10.992Z,98573.93
2023-04-13T02:13:13.882Z,98580.27
2023-04-13T02:14:16.315Z,98578.00
2023-04-13T02:15:19.302Z,98578.75
2023-04-13T02:16:21.727Z,98576.72
2023-04-13T02:17:24.247Z,98575.96
2023-04-13T02:18:26.421Z,98580.03
2023-04-13T02:19:29.073Z,98575.96
2023-04-13T02:20:34.089Z,98582.06
2023-04-13T02:21:36.227Z,98579.28
2023-04-13T02:22:38.258Z,98586.89
2023-04-13T02:23:40.326Z,98582.06
2023-04-13T02:24:42.351Z,98576.48
2023-04-13T02:25:46.745Z,98577.23
2023-04-13T02:26:48.499Z,98574.45
2023-04-13T02:27:50.571Z,98577.23
2023-04-13T02:28:52.622Z,98581.31
2023-04-13T02:29:54.673Z,98575.73
2023-04-13T02:30:57.203Z,98587.64
2023-04-13T02:31:59.601Z,98580.03
2023-04-13T02:33:02.249Z,98579.28
2023-04-13T02:34:05.216Z,98585.61
2023-04-13T02:35:09.143Z,98585.61
2023-04-13T02:36:12.395Z,98579.28
2023-04-13T02:37:19.259Z,98578.75
2023-04-13T02:38:22.444Z,98580.79
2023-04-13T02:39:26.276Z,98573.17
2023-04-13T02:40:30.599Z,98580.79
2023-04-13T02:41:33.059Z,98578.75
2023-04-13T02:42:36.698Z,98589.91
2023-04-13T02:43:38.888Z,98589.16
2023-04-13T02:44:41.160Z,98590.67
2023-04-13T02:45:43.262Z,98587.12
2023-04-13T02:46:47.792Z,98585.84
2023-04-13T02:47:52.173Z,98578.23
2023-04-13T02:48:55.272Z,98580.27
2023-04-13T02:49:57.507Z,98583.06
2023-04-13T02:51:04.810Z,98577.48
2023-04-13T02:52:09.031Z,98575.96
2023-04-13T02:53:14.114Z,98578.98
2023-04-13T02:55:33.822Z,98567.98
2023-04-13T02:56:38.243Z,98571.89
2023-04-13T02:57:40.294Z,98564.80
2023-04-13T02:58:42.333Z,98572.42
2023-04-13T02:59:46.191Z,98573.93
2023-04-13T03:00:49.354Z,98571.14
2023-04-13T03:01:54.326Z,98569.11
2023-04-13T03:02:57.718Z,98570.62
2023-04-13T03:04:01.740Z,98572.66
2023-04-13T03:05:05.881Z,98574.16
2023-04-13T03:06:09.881Z,98575.44
2023-04-13T03:07:16.638Z,98580.27
2023-04-13T03:08:20.538Z,98576.72
2023-04-13T03:09:27.073Z,98572.42
2023-04-13T03:10:30.737Z,98579.51
2023-04-13T03:11:33.268Z,98573.17
2023-04-13T03:12:40.183Z,98573.17
2023-04-13T03:13:44.025Z,98573.70
2023-04-13T03:14:46.608Z,98580.03
2023-04-13T03:15:49.610Z,98576.48
2023-04-13T03:16:52.243Z,98578.52
2023-04-13T03:17:56.592Z,98584.86
2023-04-13T03:18:59.473Z,98586.89
2023-04-13T03:20:01.650Z,98584.63
2023-04-13T03:21:05.982Z,98591.19
2023-04-13T03:22:10.385Z,98589.68
2023-04-13T03:23:14.274Z,98591.19
2023-04-13T03:24:17.054Z,98595.27
2023-04-13T03:25:19.474Z,98590.44
2023-04-13T03:26:22.968Z,98593.98
2023-04-13T03:27:25.434Z,98588.92
2023-04-13T03:28:28.323Z,98597.30
2023-04-13T03:29:31.466Z,98593.98
2023-04-13T03:30:33.860Z,98597.30
2023-04-13T03:31:36.456Z,98598.05
2023-04-13T03:32:39.026Z,98596.54
2023-04-13T03:33:41.485Z,98603.63
2023-04-13T03:34:43.518Z,98605.15
2023-04-13T03:35:46.936Z,98598.81
2023-04-13T03:36:52.609Z,98601.59
2023-04-13T03:37:55.076Z,98603.63
2023-04-13T03:39:04.601Z,98599.56
2023-04-13T03:40:11.970Z,98598.81
2023-04-13T03:41:15.886Z,98597.53
2023-04-13T03:42:19.783Z,98603.11
2023-04-13T03:43:24.023Z,98605.91
2023-04-13T03:44:27.909Z,98601.08
2023-04-13T03:45:30.352Z,98591.19
2023-04-13T03:46:34.752Z,98603.11
2023-04-13T03:47:39.538Z,98600.32
2023-04-13T03:48:42.824Z,98596.77
2023-04-13T03:49:46.724Z,98598.05
2023-04-13T03:50:49.387Z,98596.02
2023-04-13T03:51:52.978Z,98601.59
2023-04-13T03:52:55.217Z,98598.05
2023-04-13T03:53:57.512Z,98602.36
2023-04-13T03:55:00.414Z,98597.30
2023-04-13T03:56:06.943Z,98604.39
2023-04-13T03:57:09.156Z,98606.42
2023-04-13T03:58:11.634Z,98607.70
2023-04-13T03:59:14.810Z,98607.70
2023-04-13T04:00:18.652Z,98614.80
2023-04-13T04:01:23.141Z,98619.63
2023-04-13T04:02:26.642Z,98609.22
2023-04-13T04:03:29.514Z,98609.97
2023-04-13T04:04:33.660Z,98612.77
2023-04-13T04:05:38.234Z,98616.31
2023-04-13T04:06:41.166Z,98612.00
2023-04-13T04:07:45.071Z,98619.10
2023-04-13T04:08:47.125Z,98620.61
2023-04-13T04:09:51.754Z,98619.86
2023-04-13T04:10:54.827Z,98614.27
2023-04-13T04:11:57.928Z,98615.03
2023-04-13T04:13:01.917Z,98613.52
2023-04-13T04:14:04.665Z,98614.27
2023-04-13T04:15:07.989Z,98615.55
2023-04-13T04:16:11.176Z,98622.64
2023-04-13T04:17:15.166Z,98626.71
2023-04-13T04:18:18.072Z,98619.86
2023-04-13T04:19:20.135Z,98623.92
2023-04-13T04:20:23.146Z,98624.68
2023-04-13T04:21:25.760Z,98627.47
2023-04-13T04:22:28.805Z,98623.92
2023-04-13T04:23:32.727Z,98625.44
2023-04-13T04:24:36.616Z,98624.16
2023-04-13T04:25:38.666Z,98624.16
2023-04-13T04:26:41.566Z,98623.41
2023-04-13T04:27:44.068Z,98628.46
2023-04-13T04:28:46.137Z,98630.50
2023-04-13T04:29:50.114Z,98626.95
2023-04-13T04:30:54.401Z,98628.46
2023-04-13T04:31:56.706Z,98622.13
2023-04-13T04:33:00.459Z,98634.80
2023-04-13T04:34:04.902Z,98624.92
2023-04-13T04:35:10.776Z,98632.01
2023-04-13T04:36:15.357Z,98633.52
2023-04-13T04:37:20.922Z,98633.52
2023-04-13T04:38:24.987Z,98635.03
2023-04-13T04:39:27.319Z,98642.13
2023-04-13T04:40:32.221Z,98644.92
2023-04-13T04:41:34.748Z,98631.73
2023-04-13T04:42:37.253Z,98637.31
2023-04-13T04:43:40.598Z,98628.39
2023-04-13T04:44:42.655Z,98633.97
2023-04-13T04:45:45.210Z,98631.94
2023-04-13T04:46:48.183Z,98629.90
2023-04-13T04:47:50.566Z,98630.66
2023-04-13T04:48:55.293Z,98627.11
2023-04-13T04:49:58.600Z,98634.20
2023-04-13T04:51:01.568Z,98625.08
2023-04-13T04:52:05.456Z,98625.83
2023-04-13T04:53:08.245Z,98621.00
2023-04-13T04:54:10.190Z,98618.97
2023-04-13T04:55:12.720Z,98623.27
2023-04-13T04:56:17.044Z,98618.45
2023-04-13T04:57:20.995Z,98612.87
2023-04-13T04:58:23.367Z,98618.69
2023-04-13T04:59:27.269Z,98609.55
2023-04-13T05:00:34.725Z,98608.27
2023-04-13T05:01:41.729Z,98611.06
2023-04-13T05:02:45.847Z,98601.41
2023-04-13T05:03:48.125Z,98602.92
2023-04-13T05:04:55.619Z,98605.72
2023-04-13T05:05:58.047Z,98610.78
2023-04-13T05:07:01.936Z,98615.61
2023-04-13T05:08:04.875Z,98626.77
2023-04-13T05:09:07.741Z,98627.01
2023-04-13T05:10:12.162Z,98636.89
2023-04-13T05:11:16.660Z,98638.17
2023-04-13T05:12:19.401Z,98638.41
2023-04-13T05:13:21.985Z,98644.23
2023-04-13T05:14:25.854Z,98634.57
2023-04-13T05:15:28.478Z,98626.20
2023-04-13T05:16:31.368Z,98628.44
2023-04-13T05:17:35.479Z,98636.29
2023-04-13T05:18:45.076Z,98633.50
2023-04-13T05:19:48.993Z,98644.14
2023-04-13T05:20:54.103Z,98640.83
2023-04-13T05:21:56.278Z,98630.42
2023-04-13T05:23:00.348Z,98643.86
2023-04-13T05:24:02.699Z,98641.30
2023-04-13T05:25:07.164Z,98642.81
2023-04-13T05:26:10.584Z,98637.23
2023-04-13T05:27:14.879Z,98647.88
2023-04-13T05:28:17.005Z,98638.73
2023-04-13T05:29:19.146Z,98635.95
2023-04-13T05:30:23.037Z,98640.25
2023-04-13T05:31:25.192Z,98631.88
2023-04-13T05:32:27.554Z,98628.33
2023-04-13T05:33:30.554Z,98634.66
2023-04-13T05:34:32.925Z,98632.62
2023-04-13T05:35:39.965Z,98644.55
2023-04-13T05:36:42.916Z,98632.11
2023-04-13T05:37:46.738Z,98630.83
2023-04-13T05:38:50.700Z,98635.13
2023-04-13T05:39:53.639Z,98640.20
2023-04-13T05:40:57.785Z,98641.71
2023-04-13T05:42:00.363Z,98634.81
2023-04-13T05:43:03.475Z,98649.02
2023-04-13T05:44:07.462Z,98638.59
2023-04-13T05:45:10.240Z,98646.45
2023-04-13T05:46:14.995Z,98647.96
2023-04-13T05:47:20.365Z,98643.89
2023-04-13T05:48:23.271Z,98647.44
2023-04-13T05:49:27.815Z,98642.61
2023-04-13T05:50:30.407Z,98648.95
2023-04-13T05:51:33.373Z,98651.22
2023-04-13T05:52:35.501Z,98644.36
2023-04-13T05:53:38.136Z,98643.83
2023-04-13T05:54:40.718Z,98646.10
2023-04-13T05:55:42.812Z,98650.41
2023-04-13T05:56:45.700Z,98648.38
2023-04-13T05:57:48.252Z,98641.53
2023-04-13T05:58:52.068Z,98645.84
2023-04-13T05:59:56.475Z,98647.34
2023-04-13T06:01:04.246Z,98645.31
2023-04-13T06:02:06.588Z,98643.25
2023-04-13T06:03:09.124Z,98646.80
2023-04-13T06:04:12.028Z,98647.55
2023-04-13T06:05:15.512Z,98644.00
2023-04-13T06:06:17.739Z,98640.69
2023-04-13T06:08:31.328Z,98639.28
2023-04-13T06:09:33.908Z,98641.67
2023-04-13T06:10:36.724Z,98640.92
2023-04-13T06:11:39.281Z,98642.43
2023-04-13T06:12:41.442Z,98646.73
2023-04-13T06:13:44.013Z,98650.28
2023-04-13T06:14:47.045Z,98644.17
2023-04-13T06:15:49.605Z,98647.72
2023-04-13T06:16:52.252Z,98651.27
2023-04-13T06:17:54.404Z,98651.27
2023-04-13T06:18:56.694Z,98644.93
2023-04-13T06:19:59.836Z,98644.41
2023-04-13T06:21:01.885Z,98653.02
2023-04-13T06:22:03.827Z,98646.67
2023-04-13T06:23:07.725Z,98641.84
2023-04-13T06:24:10.071Z,98644.11
2023-04-13T06:25:13.200Z,98650.16
2023-04-13T06:26:16.454Z,98653.55
2023-04-13T06:27:23.326Z,98652.73
2023-04-13T06:28:25.771Z,98655.20
2023-04-13T06:29:27.903Z,98655.42
2023-04-13T06:30:33.114Z,98654.90
2023-04-13T06:31:37.783Z,98653.61
2023-04-13T06:32:41.950Z,98650.06
2023-04-13T06:33:44.556Z,98659.20
2023-04-13T06:34:47.077Z,98659.20
2023-04-13T06:35:49.762Z,98666.84
2023-04-13T06:36:51.781Z,98669.63
2023-04-13T06:37:54.149Z,98667.59
2023-04-13T06:38:58.640Z,98670.39
2023-04-13T06:40:02.286Z,98673.70
2023-04-13T06:41:05.579Z,98681.34
2023-04-13T06:42:09.492Z,98677.03
2023-04-13T06:44:25.069Z,98673.11
2023-04-13T06:45:29.084Z,98683.91
2023-04-13T06:46:31.502Z,98673.28
2023-04-13T06:47:35.667Z,98680.91
2023-04-13T06:48:38.445Z,98683.70
2023-04-13T06:49:40.984Z,98675.31
2023-04-13T06:50:44.717Z,98675.31
2023-04-13T06:51:47.538Z,98670.25
2023-04-13T06:52:49.493Z,98662.63
2023-04-13T06:53:51.704Z,98668.22
2023-04-13T06:54:54.209Z,98670.25
2023-04-13T06:55:58.093Z,98663.91
2023-04-13T06:57:00.238Z,98672.30
2023-04-13T06:58:02.502Z,98665.42
2023-04-13T06:59:05.417Z,98669.50
2023-04-13T07:00:21.741Z,98665.95
2023-04-13T07:01:13.509Z,98666.70
2023-04-13T07:02:15.580Z,98667.45
2023-04-13T07:03:18.362Z,98669.50
2023-04-13T07:04:25.067Z,98668.22
2023-04-13T07:05:27.978Z,98664.89
2023-04-13T07:06:33.701Z,98672.52
2023-04-13T07:07:36.661Z,98671.23
2023-04-13T07:08:38.812Z,98669.92
2023-04-13T07:09:41.171Z,98670.69
2023-04-13T07:10:43.311Z,98672.95
2023-04-13T07:11:47.206Z,98667.36
2023-04-13T07:12:49.831Z,98675.98
2023-04-13T07:13:52.697Z,98675.98
2023-04-13T07:14:55.801Z,98678.77
2023-04-13T07:15:58.653Z,98680.28
2023-04-13T07:17:06.366Z,98681.05
2023-04-13T07:18:13.267Z,98679.00
2023-04-13T07:19:18.006Z,98687.62
2023-04-13T07:20:20.665Z,98679.98
2023-04-13T07:21:28.848Z,98677.42
2023-04-13T07:22:33.666Z,98686.56
2023-04-13T07:23:35.789Z,98683.24
2023-04-13T07:24:37.841Z,98686.27
2023-04-13T07:25:41.707Z,98682.19
2023-04-13T07:26:46.344Z,98687.45
2023-04-13T07:27:49.014Z,98688.20
2023-04-13T07:28:52.862Z,98684.88
2023-04-13T07:29:55.465Z,98692.75
2023-04-13T07:30:59.672Z,98687.16
2023-04-13T07:32:03.745Z,98685.11
2023-04-13T07:33:06.960Z,98689.42
2023-04-13T07:34:09.916Z,98691.69
2023-04-13T07:35:13.810Z,98694.48
2023-04-13T07:36:17.427Z,98689.13
2023-04-13T07:37:20.575Z,98694.19
2023-04-13T07:38:23.184Z,98688.06
2023-04-13T07:39:25.259Z,98690.86
2023-04-13T07:40:28.801Z,98690.33
2023-04-13T07:41:35.363Z,98687.01
2023-04-13T07:42:39.905Z,98692.60
2023-04-13T07:43:42.436Z,98689.27
2023-04-13T07:44:44.954Z,98690.78
2023-04-13T07:45:47.761Z,98691.55
2023-04-13T07:46:50.887Z,98702.17
2023-04-13T07:47:53.444Z,98688.41
2023-04-13T07:49:13.382Z,98695.52
2023-04-13T07:50:17.152Z,98690.69
2023-04-13T07:51:19.673Z,98699.83
2023-04-13T07:52:22.204Z,98699.30
2023-04-13T07:53:26.792Z,98697.27
2023-04-13T07:54:28.931Z,98707.17
2023-04-13T07:55:31.510Z,98698.77
2023-04-13T07:56:33.975Z,98703.00
2023-04-13T07:57:36.074Z,98709.48
2023-04-13T07:58:38.559Z,98700.95
2023-04-13T07:59:40.681Z,98702.58
2023-04-13T08:00:43.477Z,98705.30
2023-04-13T08:01:45.554Z,98707.03
2023-04-13T08:02:48.294Z,98706.28
2023-04-13T08:03:52.818Z,98703.48
2023-04-13T08:04:58.951Z,98701.97
2023-04-13T08:06:09.318Z,98708.85
2023-04-13T08:07:11.463Z,98707.12
2023-04-13T08:08:13.573Z,98706.89
2023-04-13T08:09:16.581Z,98711.51
2023-04-13T08:10:19.300Z,98709.24
2023-04-13T08:11:21.830Z,98707.00
2023-04-13T08:12:25.837Z,98707.53
2023-04-13T08:13:29.120Z,98714.19
2023-04-13T08:14:31.479Z,98710.94
2023-04-13T08:15:35.925Z,98713.48
2023-04-13T08:16:40.663Z,98716.05
2023-04-13T08:17:45.441Z,98712.50
2023-04-13T08:18:50.857Z,98721.95
2023-04-13T08:19:55.806Z,98724.00
2023-04-13T08:20:58.275Z,98731.63
2023-04-13T08:22:01.811Z,98732.20
2023-04-13T08:23:04.074Z,98729.70
2023-04-13T08:24:08.127Z,98728.94
2023-04-13T08:25:10.621Z,98723.13
2023-04-13T08:26:22.910Z,98727.73
2023-04-13T08:27:26.771Z,98725.98
2023-04-13T08:28:32.015Z,98726.52
2023-04-13T08:29:33.939Z,98724.25
2023-04-13T08:30:37.419Z,98727.58
2023-04-13T08:31:40.652Z,98728.10
2023-04-13T08:32:45.912Z,98725.30
2023-04-13T08:33:49.246Z,98729.19
2023-04-13T08:34:51.273Z,98728.43
2023-04-13T08:35:53.780Z,98733.27
2023-04-13T08:36:57.031Z,98727.45
2023-04-13T08:38:01.650Z,98726.69
2023-04-13T08:39:04.320Z,98729.25
2023-04-13T08:40:09.584Z,98721.63
2023-04-13T08:41:11.790Z,98731.30
2023-04-13T08:42:14.778Z,98723.44
2023-04-13T08:43:19.538Z,98729.03
2023-04-13T08:44:21.790Z,98733.11
2023-04-13T08:45:25.349Z,98726.00
2023-04-13T08:46:34.990Z,98737.72
2023-04-13T08:47:37.763Z,98730.61
2023-04-13T08:48:52.686Z,98733.93
2023-04-13T08:49:44.417Z,98736.50
2023-04-13T08:50:54.632Z,98728.11
2023-04-13T08:51:56.672Z,98738.53
2023-04-13T08:52:59.789Z,98733.50
2023-04-13T08:54:01.893Z,98729.19
2023-04-13T08:55:08.534Z,98734.78
2023-04-13T08:56:14.561Z,98731.75
2023-04-13T08:57:18.654Z,98736.82
2023-04-13T08:58:20.788Z,98740.38
2023-04-13T08:59:22.851Z,98728.96
2023-04-13T09:00:27.388Z,98731.75
2023-04-13T09:01:30.928Z,98734.55
2023-04-13T09:02:33.893Z,98735.31
2023-04-13T09:03:45.801Z,98727.45
2023-04-13T09:06:04.978Z,98736.20
2023-04-13T09:07:17.662Z,98731.52
2023-04-13T09:08:20.294Z,98737.12
2023-04-13T09:09:26.979Z,98732.28
2023-04-13T09:10:30.860Z,98735.08
2023-04-13T09:11:35.978Z,98729.48
2023-04-13T09:12:40.643Z,98730.24
2023-04-13T09:15:04.280Z,98734.39
2023-04-13T09:16:09.105Z,98729.19
2023-04-13T09:17:31.127Z,98729.19
2023-04-13T09:18:35.065Z,98737.02
2023-04-13T09:19:39.135Z,98741.33
2023-04-13T09:20:44.121Z,98746.17
2023-04-13T09:21:48.293Z,98742.09
2023-04-13T09:22:52.480Z,98740.80
2023-04-13T09:23:58.948Z,98738.01
2023-04-13T09:25:07.094Z,98735.45
2023-04-13T09:26:09.941Z,98735.45
2023-04-13T09:28:30.125Z,98732.51
2023-04-13T09:29:36.130Z,98726.75
2023-04-13T09:30:39.364Z,98739.45
2023-04-13T09:31:43.647Z,98731.83
2023-04-13T09:32:48.177Z,98734.84
2023-04-13T09:33:51.884Z,98735.08
2023-04-13T09:35:06.173Z,98728.20
2023-04-13T09:36:13.927Z,98735.31
2023-04-13T09:37:16.010Z,98735.53
2023-04-13T09:38:19.903Z,98730.14
2023-04-13T09:39:27.121Z,98740.05
2023-04-13T09:41:47.408Z,98731.73
2023-04-13T09:42:56.323Z,98733.39
2023-04-13T09:44:02.540Z,98731.36
2023-04-13T09:45:06.681Z,98744.05
2023-04-13T09:46:13.483Z,98748.89
2023-04-13T09:47:15.771Z,98743.30
2023-04-13T09:48:21.671Z,98734.91
2023-04-13T09:49:24.279Z,98742.02
2023-04-13T09:50:36.167Z,98748.89
2023-04-13T09:51:39.602Z,98744.81
2023-04-13T09:52:41.641Z,98749.66
2023-04-13T09:53:46.909Z,98739.75
2023-04-13T09:54:54.207Z,98746.09
2023-04-13T09:55:59.555Z,98742.55
2023-04-13T09:58:18.768Z,98745.20
2023-04-13T09:59:31.756Z,98746.09
2023-04-13T10:01:50.751Z,98746.48
2023-04-13T10:02:53.093Z,98757.06
2023-04-13T10:03:55.348Z,98754.79
2023-04-13T10:04:58.197Z,98754.03
2023-04-13T10:06:00.778Z,98755.31
2023-04-13T10:07:05.628Z,98751.76
2023-04-13T10:08:08.196Z,98759.20
2023-04-13T10:09:10.575Z,98748.77
2023-04-13T10:10:13.656Z,98757.69
2023-04-13T10:11:15.826Z,98766.07
2023-04-13T10:12:18.804Z,98763.05
2023-04-13T10:13:25.124Z,98765.84
2023-04-13T10:14:31.641Z,98771.96
2023-04-13T10:16:02.145Z,98761.83
2023-04-13T10:17:08.411Z,98769.45
2023-04-13T10:18:36.923Z,98767.72
2023-04-13T10:19:42.321Z,98767.48
2023-04-13T10:20:44.592Z,98772.09
2023-04-13T10:21:48.431Z,98767.05
2023-04-13T10:22:51.709Z,98768.86
2023-04-13T10:23:54.110Z,98775.73
2023-04-13T10:24:58.574Z,98776.78
2023-04-13T10:26:00.679Z,98773.23
2023-04-13T10:27:20.531Z,98768.16
2023-04-13T10:28:24.064Z,98777.83
2023-04-13T10:29:30.892Z,98774.05
2023-04-13T10:30:38.076Z,98774.57
2023-04-13T10:31:47.031Z,98782.20
2023-04-13T10:33:06.160Z,98775.62
2023-04-13T10:34:09.838Z,98776.14
2023-04-13T10:35:14.073Z,98771.86
2023-04-13T10:36:18.796Z,98772.39
2023-04-13T10:37:30.173Z,98782.81
2023-04-13T10:38:47.168Z,98773.67
2023-04-13T10:39:51.448Z,98774.95
2023-04-13T10:40:55.254Z,98774.11
2023-04-13T10:42:10.197Z,98777.31
2023-04-13T10:43:29.741Z,98782.84
2023-04-13T10:44:55.927Z,98774.89
2023-04-13T10:46:10.933Z,98775.88
2023-04-13T10:47:14.197Z,98782.98
2023-04-13T10:48:28.661Z,98775.88
2023-04-13T10:49:33.110Z,98780.19
2023-04-13T10:50:38.103Z,98774.36
2023-04-13T10:51:42.452Z,98783.27
2023-04-13T10:53:03.201Z,98784.55
2023-04-13T10:54:07.751Z,98787.35
2023-04-13T10:55:09.804Z,98796.30
2023-04-13T10:56:18.071Z,98798.09
2023-04-13T10:57:23.026Z,98795.83
2023-04-13T10:58:27.163Z,98797.64
2023-04-13T11:00:56.025Z,98804.13
2023-04-13T11:01:59.119Z,98803.52
2023-04-13T11:03:01.395Z,98806.84
2023-04-13T11:04:06.803Z,98806.84
2023-04-13T11:05:09.031Z,98803.28
2023-04-13T11:06:11.652Z,98798.22
2023-04-13T11:07:16.192Z,98801.01
2023-04-13T11:08:20.468Z,98811.44
2023-04-13T11:09:22.617Z,98814.23
2023-04-13T11:10:25.863Z,98807.13
2023-04-13T11:11:28.509Z,98815.52
2023-04-13T11:12:30.469Z,98816.03
2023-04-13T11:13:32.518Z,98816.03
2023-04-13T11:14:34.606Z,98820.87
2023-04-13T11:15:36.560Z,98814.52
2023-04-13T11:16:45.062Z,98808.20
2023-04-13T11:17:54.795Z,98813.79
2023-04-13T11:19:03.526Z,98813.03
2023-04-13T11:20:07.800Z,98809.48
2023-04-13T11:21:14.827Z,98814.31
2023-04-13T11:22:18.050Z,98808.72
2023-04-13T11:23:23.061Z,98806.45
2023-04-13T11:25:36.798Z,98806.84
2023-04-13T11:26:39.892Z,98807.73
2023-04-13T11:27:42.355Z,98804.18
2023-04-13T11:28:46.966Z,98805.46
2023-04-13T11:29:59.630Z,98799.11
2023-04-13T11:31:01.689Z,98795.56
2023-04-13T11:33:13.099Z,98800.02
2023-04-13T11:34:24.024Z,98800.92
2023-04-13T11:35:26.120Z,98805.23
2023-04-13T11:36:28.353Z,98801.67
2023-04-13T11:38:43.658Z,98799.27
2023-04-13T11:39:45.617Z,98802.43
2023-04-13T11:40:49.486Z,98796.08
2023-04-13T11:41:51.473Z,98802.43
2023-04-13T11:42:55.225Z,98796.84
2023-04-13T11:43:58.275Z,98800.92
2023-04-13T11:45:00.313Z,98804.47
2023-04-13T11:46:02.523Z,98801.67
2023-04-13T11:47:05.435Z,98806.50
2023-04-13T11:48:07.393Z,98794.56
2023-04-13T11:49:09.354Z,98793.81
2023-04-13T11:50:14.825Z,98802.95
2023-04-13T11:51:16.808Z,98794.33
2023-04-13T11:52:19.343Z,98802.95
2023-04-13T11:53:21.285Z,98798.64
2023-04-13T11:54:23.236Z,98798.64
2023-04-13T11:55:25.415Z,98798.64
2023-04-13T11:56:27.734Z,98798.13
2023-04-13T11:57:33.584Z,98802.20
2023-04-13T11:58:37.446Z,98802.20
2023-04-13T11:59:39.434Z,98801.44
2023-04-13T12:00:41.699Z,98809.83
2023-04-13T12:01:49.963Z,98810.58
2023-04-13T12:06:37.825Z,98811.20
2023-04-13T12:07:40.828Z,98807.27
2023-04-13T12:08:43.780Z,98810.05
2023-04-13T12:12:29.966Z,98806.37
2023-04-13T12:13:20.311Z,98803.19
2023-04-13T12:15:43.467Z,98809.92
2023-04-13T12:17:03.090Z,98805.46
2023-04-13T12:19:49.050Z,98806.45
2023-04-13T12:20:52.231Z,98807.21
2023-04-13T12:24:00.518Z,98801.30
2023-04-13T12:25:17.749Z,98802.81
2023-04-13T12:27:22.348Z,98803.81
2023-04-13T12:34:06.741Z,98806.20
2023-04-13T12:35:09.229Z,98805.78
2023-04-13T12:36:11.957Z,98803.75
2023-04-13T12:37:13.926Z,98809.34
2023-04-13T12:38:16.248Z,98811.61
2023-04-13T12:39:19.304Z,98813.66
2023-04-13T12:40:21.949Z,98813.66
2023-04-13T12:41:23.928Z,98813.66
2023-04-13T12:42:25.828Z,98815.16
2023-04-13T12:43:28.012Z,98808.81
2023-04-13T12:44:33.131Z,98809.58
2023-04-13T12:45:34.680Z,98809.58
2023-04-13T12:46:37.066Z,98806.02
2023-04-13T12:47:40.356Z,98815.92
2023-04-13T12:48:42.411Z,98815.16
2023-04-13T12:49:45.568Z,98811.61
2023-04-13T12:50:48.277Z,98815.16
2023-04-13T12:51:50.327Z,98813.13
2023-04-13T12:52:52.285Z,98811.09
2023-04-13T12:53:55.316Z,98815.92
2023-04-13T12:55:00.826Z,98809.58
2023-04-13T12:56:04.485Z,98820.23
2023-04-13T12:57:07.640Z,98819.47
2023-04-13T12:58:10.573Z,98811.84
2023-04-13T12:59:13.161Z,98812.61
2023-04-13T13:00:17.594Z,98812.61
2023-04-13T13:01:22.452Z,98810.56
2023-04-13T13:02:26.848Z,98812.08
2023-04-13T13:03:29.398Z,98811.33
2023-04-13T13:04:31.774Z,98812.08
2023-04-13T13:05:34.949Z,98814.88
2023-04-13T13:06:38.295Z,98813.59
2023-04-13T13:07:40.302Z,98817.67
2023-04-13T13:08:42.544Z,98807.24
2023-04-13T13:09:45.603Z,98808.52
2023-04-13T13:10:49.114Z,98810.80
2023-04-13T13:11:51.199Z,98814.88
2023-04-13T13:12:53.174Z,98814.88
2023-04-13T13:13:57.263Z,98805.20
2023-04-13T13:15:00.283Z,98818.42
2023-04-13T13:16:05.490Z,98817.67
2023-04-13T13:17:07.633Z,98814.12
2023-04-13T13:18:10.662Z,98807.24
2023-04-13T13:19:13.173Z,98810.80